Time;durP1;ratioP1;P1;durP2;ratioP2;P2;SDS_P1;SDS_P2;PMS_P1;PMS_P2;Temp;Humidity;BMP_temperature;BMP_pressure;BME280_temperature;BME280_humidity;BME280_pressure;Samples;Min_cycle;Max_cycle;Signal;HPM_P1;HPM_P2
2021/07/01 00:00:16;;;;;;;1.75;1.73;;;13.60;99.90;;;14.25;100.00;97787.34;5218585;28;20193;-56
2021/07/01 00:02:50;;;;;;;2.13;2.03;;;13.60;99.90;;;14.24;100.00;97789.81;5216701;28;20228;-59
2021/07/01 00:05:23;;;;;;;2.10;2.00;;;13.50;99.90;;;14.20;100.00;97794.84;5213685;28;20200;-57
2021/07/01 00:07:56;;;;;;;2.40;2.20;;;13.50;99.90;;;14.22;100.00;97789.75;5215034;28;20224;-56
2021/07/01 00:10:30;;;;;;;2.10;2.00;;;13.40;99.90;;;14.28;100.00;97794.28;5210093;28;20568;-59
2021/07/01 00:13:04;;;;;;;2.10;1.90;;;13.50;99.90;;;14.20;100.00;97784.56;5215966;28;20240;-57
2021/07/01 00:15:37;;;;;;;1.95;1.85;;;13.50;99.90;;;14.16;100.00;97786.94;5219159;28;20719;-57
2021/07/01 00:18:12;;;;;;;2.30;2.10;;;13.50;99.90;;;14.20;100.00;97793.97;5218595;28;20189;-59
2021/07/01 00:20:45;;;;;;;2.25;1.98;;;13.50;99.90;;;14.21;100.00;97790.56;5216578;28;20608;-59
2021/07/01 00:23:18;;;;;;;2.35;2.15;;;13.40;99.90;;;14.12;100.00;97790.19;5214403;28;20304;-57
2021/07/01 00:25:51;;;;;;;2.33;2.13;;;13.40;99.90;;;14.09;100.00;97796.09;5220849;28;20287;-60
2021/07/01 00:28:24;;;;;;;2.42;2.13;;;13.40;99.90;;;14.09;100.00;97792.66;5208492;28;20194;-54
2021/07/01 00:30:57;;;;;;;2.50;2.35;;;13.40;99.90;;;14.09;100.00;97795.22;5215141;28;20576;-60
2021/07/01 00:33:31;;;;;;;2.47;2.38;;;13.40;99.90;;;14.04;100.00;97794.13;5215431;28;20221;-60
2021/07/01 00:36:04;;;;;;;2.78;2.58;;;13.40;99.90;;;14.09;100.00;97800.34;5216022;28;20200;-56
2021/07/01 00:38:37;;;;;;;2.65;2.45;;;13.40;99.90;;;14.03;100.00;97797.53;5214146;28;20194;-60
2021/07/01 00:41:10;;;;;;;2.50;2.30;;;13.30;99.90;;;14.08;100.00;97798.56;5211197;28;20217;-57
2021/07/01 00:43:43;;;;;;;2.80;2.60;;;13.30;99.90;;;14.04;100.00;97794.13;5215186;28;20193;-58
2021/07/01 00:46:17;;;;;;;2.88;2.67;;;13.30;99.90;;;13.94;100.00;97800.59;5214070;28;20194;-55
2021/07/01 00:48:51;;;;;;;2.70;2.50;;;13.20;99.90;;;13.96;100.00;97799.84;5222713;28;20723;-61
2021/07/01 00:51:24;;;;;;;3.00;2.72;;;13.30;99.90;;;14.04;100.00;97796.69;5217438;28;20254;-55
2021/07/01 00:53:58;;;;;;;2.80;2.60;;;13.30;99.90;;;13.93;100.00;97807.38;5218500;28;20221;-58
2021/07/01 00:56:36;;;;;;;2.67;2.58;;;13.20;99.90;;;13.93;100.00;97804.81;5215232;28;20209;-58
2021/07/01 00:59:10;;;;;;;4.03;2.65;;;13.30;99.90;;;13.98;100.00;97795.63;5211092;28;20193;-57
2021/07/01 01:01:43;;;;;;;2.88;2.67;;;13.20;99.90;;;13.98;100.00;97797.31;5213565;28;20239;-60
2021/07/01 01:04:18;;;;;;;2.55;2.42;;;13.20;99.90;;;13.97;100.00;97801.59;5209533;28;20185;-56
2021/07/01 01:06:51;;;;;;;2.85;2.65;;;13.20;99.90;;;13.90;100.00;97803.81;5213956;28;20661;-58
2021/07/01 01:09:24;;;;;;;2.58;2.38;;;13.20;99.90;;;13.83;100.00;97804.38;5212185;28;20194;-55
2021/07/01 01:11:57;;;;;;;2.42;2.22;;;13.10;99.90;;;13.78;100.00;97809.31;5211295;28;20220;-56
2021/07/01 01:14:30;;;;;;;2.70;2.50;;;13.10;99.90;;;13.84;100.00;97804.44;5210036;28;20221;-55
2021/07/01 01:17:04;;;;;;;3.20;2.90;;;13.20;99.90;;;13.83;100.00;97812.97;5216380;28;20650;-58
2021/07/01 01:19:39;;;;;;;2.80;2.60;;;13.20;99.90;;;13.82;100.00;97808.66;5208151;28;20291;-55
2021/07/01 01:22:13;;;;;;;3.10;2.90;;;13.20;99.90;;;13.79;100.00;97808.47;5221426;28;20213;-54
2021/07/01 01:24:46;;;;;;;2.70;2.50;;;13.20;99.90;;;13.79;100.00;97808.47;5209703;28;20189;-57
2021/07/01 01:27:21;;;;;;;3.20;2.95;;;13.10;99.90;;;13.77;100.00;97805.00;5211362;28;20197;-55
2021/07/01 01:29:54;;;;;;;3.33;2.83;;;13.20;99.90;;;13.81;100.00;97808.56;5222323;28;20211;-57
2021/07/01 01:32:27;;;;;;;2.50;2.30;;;13.10;99.90;;;13.82;100.00;97806.06;5217110;28;20597;-56
2021/07/01 01:35:01;;;;;;;3.00;2.70;;;13.10;99.90;;;13.85;100.00;97808.78;5213220;28;20247;-58
2021/07/01 01:37:35;;;;;;;3.00;2.80;;;13.10;99.90;;;13.75;100.00;97799.78;5219924;28;20204;-59
2021/07/01 01:40:10;;;;;;;3.08;2.88;;;13.10;99.90;;;13.80;100.00;97806.81;5217490;28;20285;-55
2021/07/01 01:42:43;;;;;;;3.45;2.90;;;13.10;99.90;;;13.84;100.00;97808.69;5220109;28;20225;-57
2021/07/01 01:45:16;;;;;;;2.72;2.53;;;13.20;99.90;;;13.83;100.00;97797.53;5209010;28;20190;-56
2021/07/01 01:47:51;;;;;;;3.10;2.90;;;13.10;99.90;;;13.86;100.00;97802.81;5214502;28;20193;-54
2021/07/01 01:50:25;;;;;;;3.38;3.17;;;13.10;99.90;;;13.86;100.00;97796.81;5207934;28;20196;-56
2021/07/01 01:53:01;;;;;;;2.65;2.53;;;13.20;99.90;;;13.85;100.00;97801.06;5209976;28;20716;-57
2021/07/01 01:55:35;;;;;;;2.92;2.72;;;13.10;99.90;;;13.83;100.00;97797.53;5207917;28;20560;-55
2021/07/01 01:58:09;;;;;;;2.63;2.53;;;13.10;99.90;;;13.86;100.00;97805.38;5220278;28;20200;-55
2021/07/01 02:00:42;;;;;;;3.08;2.88;;;13.10;99.90;;;13.87;100.00;97798.56;5210582;28;20198;-54
2021/07/01 02:03:15;;;;;;;2.72;2.63;;;13.10;99.90;;;13.81;100.00;97796.59;5210711;28;20221;-57
2021/07/01 02:05:48;;;;;;;3.33;3.03;;;13.10;99.90;;;13.79;100.00;97798.22;5217391;28;20565;-57
2021/07/01 02:08:22;;;;;;;3.15;2.95;;;13.20;99.90;;;13.88;100.00;97796.06;5213377;28;20193;-55
2021/07/01 02:10:55;;;;;;;3.13;2.90;;;13.10;99.90;;;13.80;100.00;97796.53;5206072;28;20205;-54
2021/07/01 02:13:28;;;;;;;3.55;3.25;;;13.10;99.90;;;13.83;100.00;97797.53;5216983;28;20220;-59
2021/07/01 02:16:01;;;;;;;3.17;2.97;;;13.20;99.90;;;13.73;100.00;97800.50;5213413;28;20300;-53
2021/07/01 02:18:35;;;;;;;3.50;3.17;;;13.20;99.90;;;13.80;100.00;97802.56;5207796;28;20296;-53
2021/07/01 02:21:08;;;;;;;3.00;2.70;;;13.10;99.90;;;13.78;100.00;97799.03;5214269;28;20202;-57
2021/07/01 02:23:43;;;;;;;3.30;3.00;;;13.10;99.90;;;13.75;100.00;97809.19;5221497;28;20204;-54
2021/07/01 02:26:17;;;;;;;3.53;3.22;;;13.10;99.90;;;13.83;100.00;97802.69;5207985;28;20219;-53
2021/07/01 02:28:50;;;;;;;3.13;2.83;;;13.20;99.90;;;13.85;100.00;97810.44;5215111;28;20194;-55
2021/07/01 02:31:23;;;;;;;3.28;3.08;;;13.20;99.90;;;13.87;100.00;97808.81;5225684;28;20215;-56
2021/07/01 02:33:56;;;;;;;3.22;3.03;;;13.10;99.90;;;13.83;100.00;97812.97;5224437;28;20662;-57
2021/07/01 02:36:29;;;;;;;3.58;3.22;;;13.20;99.90;;;13.83;100.00;97807.81;5217090;28;20218;-53
2021/07/01 02:39:07;;;;;;;3.67;3.38;;;13.20;99.90;;;13.94;100.00;97811.75;5213365;28;20202;-55
2021/07/01 02:41:40;;;;;;;3.25;2.95;;;13.20;99.90;;;14.02;100.00;97816.31;5212173;28;20224;-56
2021/07/01 02:44:13;;;;;;;3.08;2.97;;;13.10;99.90;;;13.90;100.00;97811.53;5222119;28;20193;-55
2021/07/01 02:46:46;;;;;;;3.42;2.90;;;13.10;99.90;;;13.90;100.00;97812.41;5227071;28;20685;-52
2021/07/01 02:49:19;;;;;;;3.50;3.20;;;13.10;99.90;;;13.97;100.00;97819.56;5216758;28;20190;-53
2021/07/01 02:51:53;;;;;;;3.60;2.75;;;13.10;99.90;;;13.92;100.00;97822.75;5224848;28;20224;-56
2021/07/01 02:54:27;;;;;;;3.20;2.90;;;13.20;99.90;;;13.99;100.00;97824.75;5221644;28;20200;-54
2021/07/01 02:57:01;;;;;;;3.00;2.80;;;13.10;99.90;;;13.96;100.00;97822.97;5213405;28;20565;-55
2021/07/01 02:59:34;;;;;;;2.72;2.53;;;13.10;99.90;;;13.96;100.00;97822.97;5227117;28;20208;-54
2021/07/01 03:02:07;;;;;;;3.03;2.75;;;13.20;99.90;;;13.96;100.00;97822.97;5223485;28;20218;-53
2021/07/01 03:04:40;;;;;;;2.97;2.78;;;13.10;99.90;;;13.93;100.00;97817.66;5215656;28;20622;-55
2021/07/01 03:07:16;;;;;;;3.17;2.97;;;13.20;99.90;;;13.96;100.00;97822.97;5226758;28;20200;-56
2021/07/01 03:09:50;;;;;;;3.15;2.85;;;13.20;99.90;;;13.95;100.00;97817.75;5217368;28;20194;-56
2021/07/01 03:12:23;;;;;;;2.85;2.65;;;13.20;99.90;;;14.02;100.00;97821.44;5215964;28;20209;-55
2021/07/01 03:14:56;;;;;;;3.00;2.80;;;13.20;99.90;;;13.98;100.00;97816.19;5224046;28;20221;-54
2021/07/01 03:17:29;;;;;;;3.08;2.80;;;13.20;99.90;;;13.98;100.00;97815.31;5215611;28;20197;-54
2021/07/01 03:20:04;;;;;;;3.30;2.90;;;13.20;99.90;;;14.01;100.00;97812.88;5217441;28;20666;-57
2021/07/01 03:22:37;;;;;;;2.85;2.65;;;13.20;99.90;;;14.04;100.00;97812.13;5216526;28;20216;-52
2021/07/01 03:25:13;;;;;;;2.78;2.58;;;13.20;99.90;;;14.06;100.00;97810.50;5217544;28;20280;-54
2021/07/01 03:27:46;;;;;;;3.08;2.88;;;13.20;99.90;;;13.99;100.00;97814.47;5212790;28;20200;-55
2021/07/01 03:30:20;;;;;;;3.13;2.83;;;13.20;99.90;;;13.98;100.00;97818.75;5217959;28;20204;-54
2021/07/01 03:32:53;;;;;;;3.20;2.90;;;13.20;99.90;;;14.01;100.00;97819.69;5217211;28;20220;-53
2021/07/01 03:35:26;;;;;;;3.28;3.08;;;13.20;99.90;;;14.01;100.00;97806.84;5219094;28;20209;-60
2021/07/01 03:37:59;;;;;;;3.55;2.83;;;13.30;99.90;;;14.05;100.00;97808.72;5214500;28;20207;-54
2021/07/01 03:40:33;;;;;;;2.58;2.38;;;13.20;99.90;;;14.07;100.00;97818.25;5219630;28;20193;-53
2021/07/01 03:43:06;;;;;;;3.42;3.15;;;13.30;99.90;;;14.07;100.00;97820.84;5208001;28;20220;-53
2021/07/01 03:45:39;;;;;;;3.33;3.10;;;13.30;99.90;;;14.13;100.00;97822.78;5214965;28;20724;-57
2021/07/01 03:48:13;;;;;;;3.10;2.85;;;13.30;99.90;;;14.11;100.00;97824.44;5225659;28;20907;-56
2021/07/01 03:50:46;;;;;;;3.03;2.83;;;13.30;99.90;;;14.08;100.00;97821.72;5216003;28;20220;-51
2021/07/01 03:53:19;;;;;;;3.10;2.80;;;13.30;99.90;;;14.07;100.00;97819.97;5214252;28;20221;-51
2021/07/01 03:55:53;;;;;;;2.88;2.75;;;13.30;99.90;;;14.07;100.00;97817.38;5212701;28;20210;-55
2021/07/01 03:58:26;;;;;;;2.80;2.60;;;13.30;99.90;;;14.20;100.00;97819.69;5218808;28;20205;-56
2021/07/01 04:00:59;;;;;;;2.97;2.78;;;13.30;99.90;;;14.18;100.00;97826.44;5213288;28;20189;-56
2021/07/01 04:03:32;;;;;;;3.20;3.00;;;13.30;99.90;;;14.14;100.00;97822.00;5213617;28;20194;-56
2021/07/01 04:06:05;;;;;;;3.13;2.92;;;13.30;99.90;;;14.09;100.00;97824.34;5219701;28;20284;-57
2021/07/01 04:08:39;;;;;;;3.42;3.22;;;13.30;99.90;;;14.19;100.00;97817.91;5211069;28;20202;-57
2021/07/01 04:11:13;;;;;;;2.30;2.20;;;13.30;99.90;;;14.18;100.00;97821.28;5224474;28;20595;-54
2021/07/01 04:13:46;;;;;;;3.08;2.75;;;13.30;99.90;;;14.24;100.00;97825.81;5218257;28;20211;-51
2021/07/01 04:16:19;;;;;;;2.90;2.70;;;13.30;99.90;;;14.17;100.00;97834.97;5211248;28;20231;-56
2021/07/01 04:18:53;;;;;;;3.17;2.88;;;13.30;99.90;;;14.13;100.00;97833.06;5228737;28;20196;-52
2021/07/01 04:21:28;;;;;;;3.00;2.80;;;13.40;99.90;;;14.23;100.00;97835.22;5219243;28;20722;-63
2021/07/01 04:24:01;;;;;;;2.72;2.63;;;13.30;99.90;;;14.19;100.00;97838.47;5215246;28;20288;-62
2021/07/01 04:26:36;;;;;;;2.75;2.55;;;13.30;99.90;;;14.18;100.00;97839.28;5223408;28;20211;-63
2021/07/01 04:29:09;;;;;;;2.95;2.78;;;13.30;99.90;;;14.09;100.00;97838.91;5209009;28;20209;-66
2021/07/01 04:31:43;;;;;;;3.00;2.80;;;13.20;99.90;;;14.16;100.00;97835.78;5211815;28;20582;-61
2021/07/01 04:34:16;;;;;;;3.00;2.70;;;13.30;99.90;;;14.13;100.00;97838.22;5210505;28;20204;-64
2021/07/01 04:36:49;;;;;;;3.45;2.85;;;13.30;99.90;;;14.18;100.00;97849.56;5210703;28;20309;-55
2021/07/01 04:39:22;;;;;;;2.90;2.80;;;13.30;99.90;;;14.15;100.00;97836.59;5210191;28;20204;-54
2021/07/01 04:41:57;;;;;;;3.30;3.00;;;13.30;99.90;;;14.14;100.00;97834.84;5213658;28;20221;-58
2021/07/01 04:44:30;;;;;;;3.00;2.80;;;13.30;99.90;;;14.14;100.00;97842.56;5216376;28;20203;-55
2021/07/01 04:47:04;;;;;;;2.83;2.72;;;13.30;99.90;;;14.14;100.00;97837.41;5223914;28;20193;-52
2021/07/01 04:49:37;;;;;;;3.13;2.92;;;13.40;99.90;;;14.16;100.00;97835.78;5208737;28;20202;-59
2021/07/01 04:52:10;;;;;;;3.38;3.08;;;13.40;99.90;;;14.23;100.00;97849.78;5221216;28;20214;-57
2021/07/01 04:54:43;;;;;;;2.50;2.30;;;13.40;99.90;;;14.24;100.00;97838.69;5214561;28;20206;-57
2021/07/01 04:57:17;;;;;;;3.03;2.75;;;13.50;99.90;;;14.25;100.00;97843.91;5215547;28;20248;-58
2021/07/01 04:59:50;;;;;;;3.25;2.95;;;13.40;99.90;;;14.20;100.00;97845.38;5211173;28;20700;-58
2021/07/01 05:02:24;;;;;;;3.03;2.83;;;13.40;99.90;;;14.28;100.00;97843.13;5208962;28;20214;-55
2021/07/01 05:04:57;;;;;;;2.78;2.58;;;13.40;99.90;;;14.30;100.00;97837.22;5212014;28;20220;-56
2021/07/01 05:07:30;;;;;;;3.50;2.78;;;13.50;99.90;;;14.27;100.00;97838.81;5213141;28;20215;-56
2021/07/01 05:10:04;;;;;;;2.58;2.38;;;13.50;99.90;;;14.31;100.00;97838.13;5208575;28;20193;-56
2021/07/01 05:12:38;;;;;;;2.85;2.67;;;13.50;99.90;;;14.30;100.00;97844.06;5207026;28;20238;-57
2021/07/01 05:15:12;;;;;;;3.03;2.83;;;13.50;99.90;;;14.30;100.00;97847.50;5212295;28;20205;-55
2021/07/01 05:17:46;;;;;;;2.72;2.53;;;13.40;99.90;;;14.28;100.00;97853.41;5216136;28;20707;-56
2021/07/01 05:20:19;;;;;;;3.58;2.95;;;13.40;99.90;;;14.32;100.00;97852.72;5211014;28;20202;-56
2021/07/01 05:22:52;;;;;;;3.10;2.90;;;13.50;99.90;;;14.31;100.00;97853.56;5219953;28;20228;-55
2021/07/01 05:25:25;;;;;;;3.05;2.95;;;13.50;99.90;;;14.26;100.00;97853.34;5219858;28;20198;-59
2021/07/01 05:27:59;;;;;;;2.83;2.60;;;13.50;99.90;;;14.28;100.00;97858.53;5216849;28;20586;-57
2021/07/01 05:30:33;;;;;;;3.20;3.00;;;13.50;99.90;;;14.27;100.00;97855.09;5205452;28;20189;-56
2021/07/01 05:33:06;;;;;;;3.10;2.90;;;13.50;99.90;;;14.30;100.00;97852.66;5209667;28;20228;-60
2021/07/01 05:35:39;;;;;;;3.38;3.10;;;13.50;99.90;;;14.29;100.00;97850.91;5217298;28;20731;-59
2021/07/01 05:38:12;;;;;;;3.15;2.88;;;13.50;99.90;;;14.32;100.00;97852.72;5214428;28;20616;-58
2021/07/01 05:40:45;;;;;;;3.05;2.85;;;13.60;99.90;;;14.32;100.00;97851.03;5209257;28;20200;-54
2021/07/01 05:43:19;;;;;;;3.63;3.30;;;13.60;99.90;;;14.35;100.00;97852.88;5222212;28;20217;-57
2021/07/01 05:45:52;;;;;;;3.08;2.88;;;13.60;99.90;;;14.36;100.00;97859.75;5219243;28;20572;-59
2021/07/01 05:48:26;;;;;;;3.67;3.38;;;13.70;99.90;;;14.39;100.00;97850.50;5214408;28;20434;-56
2021/07/01 05:51:03;;;;;;;3.60;3.40;;;13.70;99.90;;;14.42;100.00;97847.16;5212849;28;20276;-56
2021/07/01 05:53:41;;;;;;;3.63;3.33;;;13.70;99.90;;;14.49;100.00;97859.47;5208492;28;20197;-58
2021/07/01 05:56:14;;;;;;;3.50;3.30;;;13.70;99.90;;;14.56;100.00;97860.63;5212086;28;20293;-58
2021/07/01 05:58:49;;;;;;;3.67;3.38;;;13.80;99.90;;;14.54;100.00;97863.16;5205911;28;20204;-60
2021/07/01 06:01:22;;;;;;;4.32;3.17;;;13.80;99.90;;;14.62;100.00;97866.91;5218206;28;20214;-59
2021/07/01 06:03:55;;;;;;;3.45;3.15;;;13.80;99.90;;;14.68;100.00;97867.97;5212068;28;20194;-58
2021/07/01 06:06:28;;;;;;;3.40;3.20;;;13.80;99.90;;;14.64;100.00;97874.69;5224645;28;20199;-58
2021/07/01 06:09:04;;;;;;;3.15;2.90;;;13.80;99.90;;;14.63;100.00;97866.09;5215739;28;20204;-57
2021/07/01 06:11:37;;;;;;;3.05;2.85;;;13.90;99.90;;;14.69;100.00;97870.59;5210616;28;20217;-56
2021/07/01 06:14:12;;;;;;;3.28;3.08;;;13.80;99.90;;;14.70;100.00;97869.78;5215949;28;20193;-58
2021/07/01 06:16:47;;;;;;;3.20;3.00;;;13.80;99.90;;;14.71;100.00;97870.66;5212298;28;20216;-55
2021/07/01 06:19:20;;;;;;;3.92;3.30;;;13.80;99.90;;;14.65;100.00;97876.47;5214558;28;20243;-58
2021/07/01 06:21:54;;;;;;;3.63;3.33;;;13.80;99.90;;;14.67;100.00;97879.94;5216622;28;20231;-58
2021/07/01 06:24:29;;;;;;;4.43;3.30;;;13.80;99.90;;;14.68;100.00;97876.59;5215569;28;20232;-55
2021/07/01 06:27:03;;;;;;;3.60;3.40;;;13.90;99.90;;;14.79;100.00;97889.88;5220113;28;20191;-56
2021/07/01 06:29:37;;;;;;;3.13;2.90;;;13.80;99.90;;;14.71;100.00;97886.09;5211771;28;20206;-60
2021/07/01 06:32:10;;;;;;;3.08;2.88;;;13.80;99.90;;;14.71;100.00;97887.00;5217181;28;20661;-57
2021/07/01 06:34:44;;;;;;;3.38;3.17;;;13.80;99.90;;;14.67;100.00;97890.25;5224090;28;20612;-58
2021/07/01 06:37:18;;;;;;;3.70;3.40;;;13.90;99.90;;;14.78;100.00;97893.25;5216939;28;20225;-57
2021/07/01 06:39:52;;;;;;;3.30;3.03;;;13.80;99.90;;;14.81;100.00;97893.38;5217388;28;20299;-58
2021/07/01 06:42:26;;;;;;;3.83;3.53;;;13.80;99.90;;;14.79;100.00;97892.44;5213213;28;20209;-58
2021/07/01 06:45:04;;;;;;;3.42;3.20;;;13.90;99.90;;;14.77;100.00;97896.66;5222137;28;20200;-56
2021/07/01 06:47:39;;;;;;;3.67;3.33;;;13.90;99.90;;;14.83;100.00;97897.78;5220463;28;20193;-58
2021/07/01 06:50:13;;;;;;;3.35;3.05;;;14.00;99.90;;;14.84;100.00;97891.81;5216923;28;20229;-58
2021/07/01 06:52:47;;;;;;;4.00;3.70;;;14.00;99.90;;;14.91;100.00;97892.06;5224174;28;20615;-58
2021/07/01 06:55:21;;;;;;;3.45;3.15;;;14.10;99.90;;;14.96;100.00;97893.13;5219695;28;20284;-57
2021/07/01 06:57:55;;;;;;;3.13;2.92;;;14.10;99.90;;;15.02;100.00;97883.97;5219249;28;20220;-58
2021/07/01 07:00:29;;;;;;;3.00;2.80;;;14.20;99.90;;;15.04;100.00;97897.75;5216551;28;20292;-58
2021/07/01 07:03:04;;;;;;;3.25;2.97;;;14.20;99.90;;;15.06;100.00;97900.41;5224404;28;20278;-58
2021/07/01 07:05:39;;;;;;;3.50;3.30;;;14.20;99.90;;;15.05;100.00;97906.34;5208321;28;20383;-58
2021/07/01 07:08:13;;;;;;;3.55;3.25;;;14.30;99.90;;;15.11;100.00;97901.47;5219523;28;20272;-57
2021/07/01 07:10:47;;;;;;;3.20;3.00;;;14.30;99.90;;;15.13;100.00;97897.25;5215139;28;20203;-59
2021/07/01 07:13:24;;;;;;;3.60;3.30;;;14.30;99.90;;;15.16;100.00;97892.22;5218178;28;20308;-56
2021/07/01 07:16:02;;;;;;;4.20;3.10;;;14.30;99.90;;;15.13;100.00;97901.53;5226332;28;20567;-59
2021/07/01 07:18:37;;;;;;;3.63;3.33;;;14.20;99.90;;;15.11;100.00;97898.91;5212968;28;20221;-57
2021/07/01 07:21:17;;;;;;;3.50;3.20;;;14.30;99.90;;;15.10;100.00;97902.28;5213442;28;20737;-57
2021/07/01 07:23:55;;;;;;;3.47;3.15;;;14.30;99.90;;;15.10;100.00;97902.28;5220960;28;20197;-57
2021/07/01 07:26:28;;;;;;;3.25;3.03;;;14.20;99.90;;;15.07;100.00;97908.19;5218464;28;20207;-55
2021/07/01 07:29:02;;;;;;;3.95;3.00;;;14.20;99.90;;;15.07;100.00;97908.19;5214777;28;20547;-55
2021/07/01 07:31:40;;;;;;;3.70;3.00;;;14.20;99.90;;;15.07;100.00;97909.88;5217632;28;20214;-56
2021/07/01 07:34:13;;;;;;;3.58;3.28;;;14.20;99.90;;;15.06;100.00;97910.72;5210728;28;20198;-56
2021/07/01 07:36:47;;;;;;;3.20;3.00;;;14.30;99.90;;;15.12;100.00;97904.94;5216636;28;20198;-54
2021/07/01 07:39:20;;;;;;;3.45;3.15;;;14.30;99.90;;;15.18;100.00;97903.47;5208106;28;20200;-56
2021/07/01 07:41:53;;;;;;;3.53;3.22;;;14.40;99.90;;;15.16;100.00;97915.38;5220230;28;20217;-53
2021/07/01 07:44:27;;;;;;;3.47;3.17;;;14.30;99.90;;;15.18;100.00;97911.19;5225887;28;20209;-57
2021/07/01 07:47:03;;;;;;;3.20;3.00;;;14.40;99.90;;;15.20;100.00;97911.25;5219889;28;20194;-57
2021/07/01 07:49:36;;;;;;;3.22;2.92;;;14.40;99.90;;;15.29;100.00;97909.91;5220901;28;20189;-55
2021/07/01 07:52:11;;;;;;;2.97;2.78;;;14.50;99.90;;;15.37;100.00;97906.78;5225389;28;20213;-59
2021/07/01 07:54:50;;;;;;;3.53;3.22;;;14.50;99.90;;;15.36;100.00;97902.44;5215291;28;20220;-53
2021/07/01 07:57:28;;;;;;;3.22;2.95;;;14.50;99.90;;;15.44;100.00;97908.75;5210097;28;20699;-57
2021/07/01 08:00:01;;;;;;;3.90;3.60;;;14.50;99.90;;;15.52;100.00;97902.22;5213234;28;20197;-57
2021/07/01 08:02:46;;;;;;;3.50;3.20;;;14.60;99.90;;;15.63;100.00;97902.63;5214988;28;20255;-53
2021/07/01 08:05:22;;;;;;;3.25;2.90;;;14.60;99.90;;;15.65;100.00;97899.28;5220504;28;20368;-56
2021/07/01 08:07:57;;;;;;;4.15;3.47;;;14.70;99.90;;;15.66;100.00;97906.19;5215104;28;20185;-53
2021/07/01 08:10:32;;;;;;;3.75;3.53;;;14.70;99.90;;;15.65;100.00;97906.13;5207453;28;20197;-57
2021/07/01 08:13:06;;;;;;;3.60;3.30;;;14.70;99.90;;;15.67;100.00;97905.34;5217853;28;20300;-57
2021/07/01 08:15:41;;;;;;;4.05;3.13;;;14.70;99.90;;;15.76;100.00;97903.16;5218978;28;20284;-53
2021/07/01 08:18:25;;;;;;;3.22;3.03;;;14.70;99.90;;;15.76;100.00;97903.16;5212530;28;20216;-58
2021/07/01 08:20:59;;;;;;;3.50;3.20;;;14.80;99.90;;;15.83;100.00;97905.97;5213473;28;20666;-57
2021/07/01 08:23:34;;;;;;;4.05;3.75;;;14.90;99.90;;;15.93;100.00;97913.22;5215506;28;20212;-57
2021/07/01 08:26:07;;;;;;;3.97;3.30;;;14.90;99.90;;;16.01;100.00;97903.19;5217880;28;20197;-53
2021/07/01 08:28:41;;;;;;;3.50;3.30;;;14.90;99.90;;;16.02;99.50;97900.66;5222059;28;20384;-55
2021/07/01 08:31:17;;;;;;;3.28;3.08;;;14.90;99.90;;;15.96;100.00;97908.16;5210503;28;20225;-54
2021/07/01 08:33:53;;;;;;;3.97;3.67;;;14.90;99.90;;;16.02;100.00;97907.50;5212288;28;20208;-56
2021/07/01 08:36:26;;;;;;;4.03;3.72;;;15.00;99.90;;;16.10;100.00;97903.53;5210343;28;20258;-57
2021/07/01 08:38:59;;;;;;;3.67;3.38;;;15.00;99.90;;;16.14;98.71;97903.69;5214297;28;20227;-55
2021/07/01 08:41:33;;;;;;;3.80;3.50;;;15.00;99.90;;;16.32;95.48;97900.00;5211740;28;20259;-56
2021/07/01 08:44:08;;;;;;;3.97;3.42;;;15.00;99.90;;;16.26;95.37;97904.97;5215259;28;20196;-55
2021/07/01 08:46:48;;;;;;;3.90;3.60;;;15.00;99.90;;;16.17;96.40;97900.34;5216878;28;20193;-57
2021/07/01 08:49:35;;;;;;;3.85;3.55;;;15.00;99.90;;;16.24;96.02;97902.31;5216283;28;20288;-56
2021/07/01 08:52:08;;;;;;;3.72;3.53;;;15.00;99.90;;;16.23;96.56;97910.00;5214626;28;20220;-53
2021/07/01 08:54:44;;;;;;;4.10;3.80;;;15.00;99.90;;;16.18;97.61;97907.25;5206203;28;20194;-56
2021/07/01 08:57:20;;;;;;;3.53;3.33;;;15.10;99.90;;;16.19;97.87;97903.84;5212170;28;20189;-56
2021/07/01 09:00:02;;;;;;;3.80;3.50;;;15.00;99.90;;;16.24;97.65;97911.75;5218850;28;20722;-56
2021/07/01 09:02:39;;;;;;;3.95;3.42;;;15.10;99.90;;;16.26;97.16;97913.56;5220207;28;20217;-57
2021/07/01 09:05:17;;;;;;;3.60;3.30;;;15.10;99.90;;;16.17;95.35;97919.28;5210883;28;20296;-59
2021/07/01 09:07:54;;;;;;;3.45;3.17;;;15.00;99.90;;;16.09;96.94;97915.53;5217770;28;20284;-57
2021/07/01 09:10:30;;;;;;;3.65;3.35;;;15.00;99.90;;;16.06;97.69;97911.97;5220600;28;20304;-56
2021/07/01 09:13:08;;;;;;;4.15;3.80;;;15.00;99.90;;;16.06;98.26;97918.00;5214456;28;20227;-56
2021/07/01 09:15:43;;;;;;;3.72;3.42;;;15.00;99.90;;;16.01;98.67;97918.66;5219552;28;20393;-57
2021/07/01 09:18:17;;;;;;;3.67;3.42;;;15.00;99.90;;;15.97;99.00;97922.84;5219953;28;20220;-59
2021/07/01 09:20:53;;;;;;;3.72;3.42;;;15.00;99.90;;;15.93;99.44;97928.69;5219648;28;20580;-55
2021/07/01 09:23:30;;;;;;;4.05;3.67;;;15.00;99.90;;;15.85;100.00;97933.56;5209406;28;20204;-57
2021/07/01 09:26:07;;;;;;;3.75;3.55;;;15.00;99.90;;;15.79;100.00;97935.03;5213459;28;20235;-54
2021/07/01 09:28:40;;;;;;;4.75;4.45;;;14.90;99.90;;;15.77;99.59;97930.69;5210295;28;20197;-57
2021/07/01 09:31:16;;;;;;;4.10;3.80;;;14.80;99.90;;;15.69;99.55;97926.94;5212807;28;20218;-58
2021/07/01 09:33:51;;;;;;;4.55;4.25;;;14.80;99.90;;;15.72;99.53;97932.22;5215985;28;20300;-57
2021/07/01 09:36:26;;;;;;;4.70;4.32;;;14.70;99.90;;;15.81;100.00;97930.81;5215536;28;20297;-57
2021/07/01 09:39:03;;;;;;;4.82;4.53;;;14.90;99.90;;;15.92;100.00;97935.53;5218242;28;20213;-57
2021/07/01 09:41:36;;;;;;;4.47;4.18;;;14.90;99.90;;;16.09;99.39;97938.75;5208448;28;20217;-59
2021/07/01 09:44:13;;;;;;;4.55;4.22;;;15.10;99.90;;;16.25;98.10;97928.97;5211522;28;20626;-59
2021/07/01 09:46:49;;;;;;;4.97;4.53;;;15.10;99.90;;;16.32;97.53;97926.69;5204978;28;20650;-55
2021/07/01 09:49:30;;;;;;;5.07;4.13;;;15.20;99.90;;;16.44;98.14;97928.81;5218021;28;20652;-58
2021/07/01 09:52:08;;;;;;;5.00;4.60;;;15.40;99.90;;;16.60;97.99;97931.09;5219756;28;20213;-58
2021/07/01 09:54:48;;;;;;;3.97;3.70;;;15.50;99.90;;;16.77;96.08;97930.81;5208446;28;20546;-55
2021/07/01 09:57:28;;;;;;;4.70;4.30;;;15.60;99.90;;;16.80;95.99;97931.81;5210233;28;20199;-57
2021/07/01 10:00:06;;;;;;;5.13;4.72;;;15.60;99.90;;;16.88;95.42;97932.06;5209250;28;20588;-55
2021/07/01 10:02:41;;;;;;;5.18;4.78;;;15.70;99.90;;;16.93;95.44;97927.94;5214888;28;20595;-59
2021/07/01 10:05:28;;;;;;;4.57;4.28;;;15.70;99.90;;;16.99;93.45;97933.28;5210227;28;20201;-58
2021/07/01 10:08:03;;;;;;;4.57;4.18;;;15.80;99.90;;;16.99;93.78;97930.72;5205210;28;20240;-58
2021/07/01 10:10:48;;;;;;;4.88;4.47;;;15.90;99.90;;;16.99;94.83;97922.09;5213814;28;20193;-58
2021/07/01 10:13:24;;;;;;;5.03;4.45;;;16.00;99.90;;;17.18;94.57;97924.44;5216272;28;20239;-57
2021/07/01 10:15:57;;;;;;;4.90;4.50;;;16.10;99.90;;;17.42;93.00;97932.09;5204511;28;20202;-57
2021/07/01 10:18:43;;;;;;;4.75;4.38;;;16.20;99.90;;;17.59;91.70;97922.28;5204631;28;20206;-57
2021/07/01 10:21:17;;;;;;;4.75;4.45;;;16.40;99.90;;;17.64;90.80;97925.00;5221828;28;20713;-58
2021/07/01 10:24:12;;;;;;;4.82;4.43;;;16.50;99.90;;;17.55;89.85;97923.88;5206051;28;20193;-57
2021/07/01 10:26:49;;;;;;;4.72;4.32;;;16.50;99.90;;;17.45;90.61;97928.72;5206590;28;20189;-56
2021/07/01 10:29:22;;;;;;;4.85;4.50;;;16.40;99.90;;;17.44;89.67;97924.41;5209527;28;20204;-54
2021/07/01 10:31:59;;;;;;;4.30;4.00;;;16.30;99.90;;;17.17;90.17;97932.13;5205853;28;20267;-59
2021/07/01 10:34:47;;;;;;;4.35;3.97;;;16.20;99.90;;;16.95;90.23;97926.28;5219029;28;20240;-57
2021/07/01 10:37:23;;;;;;;4.65;4.30;;;16.00;99.90;;;16.81;91.00;97924.94;5216333;28;20203;-58
2021/07/01 10:39:58;;;;;;;4.22;3.92;;;15.90;99.90;;;16.73;92.08;97922.06;5226387;28;20216;-55
2021/07/01 10:42:31;;;;;;;4.50;4.20;;;15.80;99.90;;;16.70;92.22;97915.94;5223353;28;20233;-58